createdAt,value
2024-03-26T00:00:40.388Z,101.60
2024-03-26T00:01:41.411Z,101.73
2024-03-26T00:02:40.379Z,102.09
2024-03-26T00:03:40.348Z,101.54
2024-03-26T00:04:40.339Z,103.18
2024-03-26T00:05:40.339Z,100.79
2024-03-26T00:06:40.340Z,99.34
2024-03-26T00:07:40.318Z,101.82
2024-03-26T00:08:40.320Z,99.18
2024-03-26T00:09:40.292Z,99.99
2024-03-26T00:10:40.349Z,99.65
2024-03-26T00:11:40.306Z,99.27
2024-03-26T00:12:40.291Z,100.14
2024-03-26T00:13:40.328Z,99.12
2024-03-26T00:14:40.352Z,100.30
2024-03-26T00:15:40.379Z,97.42
2024-03-26T00:16:40.404Z,98.70
2024-03-26T00:17:40.465Z,99.70
2024-03-26T00:18:40.476Z,100.75
2024-03-26T00:19:40.514Z,95.84
2024-03-26T00:20:40.567Z,99.46
2024-03-26T00:21:40.579Z,98.72
2024-03-26T00:22:40.603Z,97.72
2024-03-26T00:23:40.702Z,99.08
2024-03-26T00:24:40.668Z,98.46
2024-03-26T00:25:40.710Z,99.82
2024-03-26T00:26:40.750Z,97.45
2024-03-26T00:27:40.768Z,97.32
2024-03-26T00:29:40.864Z,96.96
2024-03-26T00:30:40.871Z,97.50
2024-03-26T00:31:40.902Z,95.00
2024-03-26T00:32:40.944Z,96.79
2024-03-26T00:33:40.964Z,95.25
2024-03-26T00:34:40.988Z,95.88
2024-03-26T00:35:41.058Z,96.14
2024-03-26T00:36:41.074Z,96.19
2024-03-26T00:37:41.095Z,96.61
2024-03-26T00:38:41.129Z,95.79
2024-03-26T00:39:41.154Z,95.65
2024-03-26T00:40:41.188Z,95.50
2024-03-26T00:41:41.240Z,91.85
2024-03-26T00:42:41.256Z,95.33
2024-03-26T00:43:41.295Z,94.26
2024-03-26T00:44:41.329Z,95.27
2024-03-26T00:45:41.355Z,95.53
2024-03-26T00:46:41.402Z,93.88
2024-03-26T00:47:41.429Z,95.66
2024-03-26T00:48:41.443Z,95.80
2024-03-26T00:49:41.485Z,94.45
2024-03-26T00:50:41.524Z,94.30
2024-03-26T00:51:41.548Z,95.27
2024-03-26T00:52:41.584Z,95.45
2024-03-26T00:53:41.633Z,92.63
2024-03-26T00:54:41.666Z,95.54
2024-03-26T00:55:41.720Z,95.28
2024-03-26T00:56:41.767Z,96.00
2024-03-26T00:57:41.781Z,93.70
2024-03-26T00:58:41.784Z,93.76
2024-03-26T00:59:41.776Z,94.08
2024-03-26T01:00:41.748Z,94.34
2024-03-26T01:01:41.755Z,93.86
2024-03-26T01:02:41.751Z,95.70
2024-03-26T01:03:41.744Z,95.78
2024-03-26T01:04:41.725Z,95.41
2024-03-26T01:05:41.736Z,93.49
2024-03-26T01:06:41.707Z,94.58
2024-03-26T01:07:41.698Z,95.35
2024-03-26T01:08:41.693Z,94.48
2024-03-26T01:09:41.665Z,93.63
2024-03-26T01:10:41.714Z,94.46
2024-03-26T01:11:41.746Z,93.55
2024-03-26T01:12:41.778Z,93.46
2024-03-26T01:13:41.811Z,93.04
2024-03-26T01:14:41.861Z,94.12
2024-03-26T01:15:41.836Z,93.17
2024-03-26T01:16:41.840Z,92.45
2024-03-26T01:17:41.810Z,91.95
2024-03-26T01:18:41.800Z,92.14
2024-03-26T01:19:41.784Z,91.58
2024-03-26T01:20:41.765Z,90.83
2024-03-26T01:21:41.765Z,90.70
2024-03-26T01:22:41.746Z,90.45
2024-03-26T01:23:41.728Z,90.08
2024-03-26T01:24:41.719Z,91.23
2024-03-26T01:25:41.706Z,90.80
2024-03-26T01:26:41.826Z,91.19
2024-03-26T01:27:41.775Z,88.55
2024-03-26T01:28:41.833Z,89.37
2024-03-26T01:29:41.858Z,88.71
2024-03-26T01:30:41.879Z,88.79
2024-03-26T01:31:41.918Z,90.79
2024-03-26T01:32:41.963Z,89.21
2024-03-26T01:33:41.995Z,89.53
2024-03-26T01:34:42.018Z,89.73
2024-03-26T01:35:42.075Z,89.91
2024-03-26T01:36:42.092Z,89.67
2024-03-26T01:37:42.125Z,90.62
2024-03-26T01:38:42.168Z,91.97
2024-03-26T01:39:42.197Z,88.64
2024-03-26T01:40:42.228Z,88.06
2024-03-26T01:41:42.297Z,89.56
2024-03-26T01:42:42.303Z,89.59
2024-03-26T01:43:42.333Z,89.14
2024-03-26T01:44:42.380Z,87.95
2024-03-26T01:45:42.400Z,91.01
2024-03-26T01:46:42.462Z,90.46
2024-03-26T01:47:42.472Z,88.36
2024-03-26T01:48:42.497Z,89.30
2024-03-26T01:49:42.533Z,90.21
2024-03-26T01:50:42.619Z,89.62
2024-03-26T01:51:42.618Z,89.31
2024-03-26T01:52:42.657Z,89.71
2024-03-26T01:53:42.687Z,87.89
2024-03-26T01:54:42.712Z,87.54
2024-03-26T01:55:42.759Z,87.76
2024-03-26T01:56:42.801Z,90.63
2024-03-26T01:57:42.839Z,88.29
2024-03-26T01:58:42.867Z,88.96
2024-03-26T01:59:42.911Z,89.57
2024-03-26T02:00:42.930Z,89.53
2024-03-26T02:01:42.974Z,87.29
2024-03-26T02:02:43.034Z,90.07
2024-03-26T02:03:42.993Z,90.08
2024-03-26T02:04:42.978Z,90.23
2024-03-26T02:05:42.976Z,89.17
2024-03-26T02:06:42.948Z,89.61
2024-03-26T02:07:42.929Z,91.48
2024-03-26T02:08:42.967Z,91.04
2024-03-26T02:09:42.924Z,91.06
2024-03-26T02:10:42.911Z,91.11
2024-03-26T02:11:42.876Z,92.14
2024-03-26T02:12:42.875Z,91.50
2024-03-26T02:13:42.876Z,90.90
2024-03-26T02:14:42.890Z,88.26
2024-03-26T02:15:42.917Z,90.46
2024-03-26T02:16:42.961Z,89.86
2024-03-26T02:17:43.017Z,90.47
2024-03-26T02:18:43.055Z,87.93
2024-03-26T02:19:43.097Z,90.75
2024-03-26T02:20:43.804Z,88.75
2024-03-26T02:21:43.153Z,88.05
2024-03-26T02:22:43.184Z,90.58
2024-03-26T02:23:43.260Z,89.24
2024-03-26T02:24:43.287Z,88.53
2024-03-26T02:25:43.316Z,89.33
2024-03-26T02:26:43.355Z,89.27
2024-03-26T02:27:43.343Z,88.60
2024-03-26T02:28:43.314Z,88.48
2024-03-26T02:29:43.317Z,89.53
2024-03-26T02:30:43.299Z,89.59
2024-03-26T02:31:43.273Z,89.71
2024-03-26T02:32:43.269Z,87.12
2024-03-26T02:33:43.253Z,89.46
2024-03-26T02:34:43.219Z,87.18
2024-03-26T02:35:43.227Z,87.46
2024-03-26T02:36:43.188Z,87.27
2024-03-26T02:37:43.185Z,87.08
2024-03-26T02:38:43.170Z,85.82
2024-03-26T02:39:43.159Z,88.19
2024-03-26T02:40:43.211Z,88.36
2024-03-26T02:41:43.250Z,87.53
2024-03-26T02:42:43.280Z,87.98
2024-03-26T02:43:43.310Z,87.26
2024-03-26T02:44:43.389Z,86.82
2024-03-26T02:45:43.391Z,88.65
2024-03-26T02:46:43.455Z,86.36
2024-03-26T02:47:43.473Z,87.43
2024-03-26T02:48:43.520Z,87.89
2024-03-26T02:49:43.542Z,88.59
2024-03-26T02:50:43.602Z,87.85
2024-03-26T02:51:43.646Z,86.65
2024-03-26T02:52:43.657Z,89.70
2024-03-26T02:53:43.692Z,89.13
2024-03-26T02:54:43.719Z,88.31
2024-03-26T02:55:43.757Z,90.22
2024-03-26T02:56:43.826Z,88.21
2024-03-26T02:57:43.817Z,88.95
2024-03-26T02:58:43.857Z,89.05
2024-03-26T02:59:43.971Z,90.03
2024-03-26T03:00:43.940Z,87.77
2024-03-26T03:01:43.978Z,87.64
2024-03-26T03:02:46.068Z,88.54
2024-03-26T03:03:44.001Z,87.06
2024-03-26T03:04:43.999Z,87.83
2024-03-26T03:05:43.993Z,88.91
2024-03-26T03:06:43.952Z,88.68
2024-03-26T03:07:43.933Z,89.95
2024-03-26T03:08:43.925Z,89.79
2024-03-26T03:09:43.928Z,86.80
2024-03-26T03:10:43.905Z,87.45
2024-03-26T03:11:43.901Z,88.66
2024-03-26T03:12:43.873Z,87.93
2024-03-26T03:13:43.855Z,85.88
2024-03-26T03:14:43.853Z,87.53
2024-03-26T03:15:43.837Z,87.46
2024-03-26T03:16:43.901Z,87.60
2024-03-26T03:17:43.817Z,88.98
2024-03-26T03:18:43.808Z,88.37
2024-03-26T03:19:43.792Z,87.86
2024-03-26T03:20:43.806Z,89.08
2024-03-26T03:21:43.770Z,88.07
2024-03-26T03:22:43.743Z,86.52
2024-03-26T03:23:43.778Z,86.23
2024-03-26T03:24:43.726Z,88.63
2024-03-26T03:25:43.698Z,87.79
2024-03-26T03:26:43.702Z,88.14
2024-03-26T03:27:43.683Z,86.86
2024-03-26T03:28:43.674Z,88.83
2024-03-26T03:29:43.672Z,85.90
2024-03-26T03:30:43.647Z,87.75
2024-03-26T03:31:43.642Z,89.20
2024-03-26T03:32:43.641Z,89.68
2024-03-26T03:33:43.613Z,87.72
2024-03-26T03:34:43.612Z,87.36
2024-03-26T03:35:43.614Z,88.62
2024-03-26T03:36:43.596Z,88.31
2024-03-26T03:37:43.587Z,86.08
2024-03-26T03:38:43.611Z,86.56
2024-03-26T03:39:43.540Z,88.74
2024-03-26T03:40:43.533Z,88.28
2024-03-26T03:41:43.534Z,88.64
2024-03-26T03:42:43.496Z,88.54
2024-03-26T03:43:43.482Z,87.59
2024-03-26T03:44:43.490Z,87.28
2024-03-26T03:45:43.452Z,85.95
2024-03-26T03:46:43.453Z,87.99
2024-03-26T03:47:43.434Z,85.60
2024-03-26T03:48:43.478Z,84.93
2024-03-26T03:49:43.518Z,85.93
2024-03-26T03:50:43.581Z,85.41
2024-03-26T03:51:43.619Z,86.70
2024-03-26T03:52:43.642Z,86.63
2024-03-26T03:53:43.694Z,87.29
2024-03-26T03:54:43.730Z,86.10
2024-03-26T03:55:43.776Z,85.96
2024-03-26T03:56:43.774Z,86.01
2024-03-26T03:57:43.766Z,86.21
2024-03-26T03:58:43.733Z,87.04
2024-03-26T03:59:43.743Z,86.50
2024-03-26T04:00:43.717Z,86.97
2024-03-26T04:01:43.715Z,86.72
2024-03-26T04:02:43.713Z,87.60
2024-03-26T04:03:43.688Z,88.78
2024-03-26T04:04:43.679Z,87.54
2024-03-26T04:05:43.666Z,86.91
2024-03-26T04:06:43.704Z,86.17
2024-03-26T04:07:43.739Z,86.43
2024-03-26T04:08:43.770Z,87.38
2024-03-26T04:09:43.810Z,88.98
2024-03-26T04:10:43.854Z,89.92
2024-03-26T04:11:43.890Z,87.79
2024-03-26T04:12:43.938Z,89.81
2024-03-26T04:13:43.968Z,87.33
2024-03-26T04:14:44.013Z,90.30
2024-03-26T04:15:44.054Z,90.12
2024-03-26T04:16:44.095Z,89.07
2024-03-26T04:17:44.136Z,87.73
2024-03-26T04:18:44.177Z,90.24
2024-03-26T04:19:44.189Z,87.36
2024-03-26T04:20:44.220Z,88.47
2024-03-26T04:21:44.261Z,87.47
2024-03-26T04:22:44.294Z,87.52
2024-03-26T04:23:44.329Z,88.32
2024-03-26T04:24:44.402Z,89.68
2024-03-26T04:25:44.415Z,89.89
2024-03-26T04:26:44.463Z,87.84
2024-03-26T04:27:44.486Z,87.71
2024-03-26T04:28:44.537Z,88.38
2024-03-26T04:29:51.770Z,50.00
2024-03-26T04:30:51.737Z,50.00
2024-03-26T04:31:59.023Z,50.00
2024-03-26T04:32:59.041Z,50.00
2024-03-26T04:33:59.040Z,50.00
2024-03-26T04:34:59.063Z,50.00
2024-03-26T04:35:59.082Z,50.00
2024-03-26T04:36:59.099Z,50.68
2024-03-26T04:37:59.140Z,51.25
2024-03-26T04:38:59.135Z,52.33
2024-03-26T04:39:59.168Z,51.37
2024-03-26T04:40:59.195Z,51.23
2024-03-26T04:41:59.211Z,53.15
2024-03-26T04:42:59.239Z,51.61
2024-03-26T04:43:59.253Z,51.66
2024-03-26T04:44:59.283Z,51.83
2024-03-26T04:45:59.297Z,52.10
2024-03-26T04:46:59.312Z,52.42
2024-03-26T04:47:59.345Z,50.89
2024-03-26T04:48:59.358Z,52.69
2024-03-26T04:49:59.380Z,51.48
2024-03-26T04:50:59.390Z,52.77
2024-03-26T04:51:59.457Z,53.89
2024-03-26T04:52:59.451Z,52.39
2024-03-26T04:53:59.473Z,53.39
2024-03-26T04:54:59.486Z,55.02
2024-03-26T04:55:59.506Z,55.66
2024-03-26T04:56:59.584Z,54.10
2024-03-26T04:57:59.552Z,53.88
2024-03-26T04:58:59.558Z,53.35
2024-03-26T04:59:59.619Z,54.28
2024-03-26T05:00:59.690Z,56.26
2024-03-26T05:01:59.738Z,52.11
2024-03-26T05:02:59.813Z,54.77
2024-03-26T05:03:59.858Z,55.68
2024-03-26T05:04:59.918Z,52.36
2024-03-26T05:05:59.992Z,53.01
2024-03-26T05:07:00.087Z,54.00
2024-03-26T05:08:00.122Z,51.48
2024-03-26T05:09:00.175Z,53.05
2024-03-26T05:10:00.238Z,51.29
2024-03-26T05:11:00.305Z,53.19
2024-03-26T05:12:00.376Z,53.91
2024-03-26T05:13:00.421Z,51.83
2024-03-26T05:14:00.484Z,53.48
2024-03-26T05:15:00.559Z,54.29
2024-03-26T05:16:02.288Z,54.25
2024-03-26T05:17:00.626Z,52.36
2024-03-26T05:18:00.653Z,52.99
2024-03-26T05:19:00.672Z,55.05
2024-03-26T05:20:00.673Z,55.79
2024-03-26T05:21:00.697Z,53.53
2024-03-26T05:22:00.733Z,54.55
2024-03-26T05:23:00.756Z,53.99
2024-03-26T05:24:00.848Z,54.79
2024-03-26T05:25:00.775Z,55.11
2024-03-26T05:26:00.808Z,54.95
2024-03-26T05:27:00.778Z,55.96
2024-03-26T05:28:00.798Z,53.12
2024-03-26T05:29:00.839Z,53.40
2024-03-26T05:30:00.849Z,54.94
2024-03-26T05:31:00.832Z,54.27
2024-03-26T05:32:00.864Z,53.60
2024-03-26T05:33:00.859Z,56.42
2024-03-26T05:34:00.890Z,52.79
2024-03-26T05:35:00.900Z,54.35
2024-03-26T05:36:00.936Z,54.92
2024-03-26T05:37:00.982Z,54.30
2024-03-26T05:38:00.939Z,54.95
2024-03-26T05:39:00.941Z,53.25
2024-03-26T05:40:00.970Z,54.54
2024-03-26T05:41:00.986Z,53.18
2024-03-26T05:42:01.016Z,53.13
2024-03-26T05:43:01.014Z,52.84
2024-03-26T05:44:01.039Z,55.10
2024-03-26T05:45:01.066Z,55.39
2024-03-26T05:46:01.054Z,52.93
2024-03-26T05:47:01.078Z,52.82
2024-03-26T05:48:01.627Z,52.45
2024-03-26T05:49:01.090Z,53.85
2024-03-26T05:50:01.132Z,54.51
2024-03-26T05:51:01.139Z,54.46
2024-03-26T05:52:01.183Z,53.10
2024-03-26T05:53:01.170Z,53.89
2024-03-26T05:54:01.193Z,52.32
2024-03-26T05:55:01.202Z,52.99
2024-03-26T05:56:01.199Z,53.57
2024-03-26T05:57:01.239Z,52.17
2024-03-26T05:58:01.236Z,51.63
2024-03-26T05:59:01.264Z,52.00
2024-03-26T06:00:01.284Z,50.33
2024-03-26T06:01:01.293Z,51.18
2024-03-26T06:02:01.295Z,52.60
2024-03-26T06:03:01.313Z,52.08
2024-03-26T06:04:02.779Z,52.25
2024-03-26T06:05:01.375Z,53.42
2024-03-26T06:06:01.399Z,53.46
2024-03-26T06:07:01.396Z,52.59
2024-03-26T06:08:01.393Z,53.74
2024-03-26T06:09:01.410Z,53.56
2024-03-26T06:10:01.430Z,51.57
2024-03-26T06:11:01.471Z,53.04
2024-03-26T06:12:01.529Z,57.60
2024-03-26T06:13:04.104Z,51.77
2024-03-26T06:14:01.543Z,52.94
2024-03-26T06:15:01.526Z,53.16
2024-03-26T06:16:01.557Z,51.56
2024-03-26T06:17:01.541Z,52.88
2024-03-26T06:19:01.584Z,53.48
2024-03-26T06:20:01.779Z,52.32
2024-03-26T06:21:01.660Z,52.50
2024-03-26T06:22:01.653Z,52.60
2024-03-26T06:23:01.674Z,55.06
2024-03-26T06:24:01.682Z,53.84
2024-03-26T06:25:01.747Z,54.96
2024-03-26T06:26:01.714Z,53.19
2024-03-26T06:27:01.762Z,54.36
2024-03-26T06:28:01.826Z,54.12
2024-03-26T06:29:01.788Z,53.41
2024-03-26T06:30:01.831Z,53.18
2024-03-26T06:31:01.824Z,53.24
2024-03-26T06:32:01.847Z,51.76
2024-03-26T06:33:01.859Z,51.84
2024-03-26T06:34:01.868Z,51.95
2024-03-26T06:35:01.929Z,54.19
2024-03-26T06:36:01.933Z,52.00
2024-03-26T06:37:01.951Z,51.17
2024-03-26T06:38:01.963Z,54.03
2024-03-26T06:39:02.020Z,51.16
2024-03-26T06:40:02.020Z,52.69
2024-03-26T06:41:02.029Z,53.67
2024-03-26T06:42:02.063Z,53.72
2024-03-26T06:43:02.058Z,53.88
2024-03-26T06:44:02.081Z,54.65
2024-03-26T06:45:02.085Z,53.48
2024-03-26T06:46:02.112Z,56.27
2024-03-26T06:47:02.124Z,53.85
2024-03-26T06:48:02.144Z,51.82
2024-03-26T06:49:02.161Z,53.17
2024-03-26T06:50:02.199Z,53.03
2024-03-26T06:51:02.204Z,52.13
2024-03-26T06:52:02.231Z,54.25
2024-03-26T06:53:02.236Z,54.68
2024-03-26T06:54:02.304Z,51.79
2024-03-26T06:55:02.397Z,55.16
2024-03-26T06:56:02.453Z,55.57
2024-03-26T06:57:02.563Z,54.13
2024-03-26T06:58:02.610Z,52.29
2024-03-26T06:59:02.653Z,53.30
2024-03-26T07:00:02.723Z,51.94
2024-03-26T07:01:02.785Z,54.42
2024-03-26T07:02:02.858Z,53.28
2024-03-26T07:03:02.906Z,51.99
2024-03-26T07:04:02.993Z,51.02
2024-03-26T07:05:03.047Z,53.19
2024-03-26T07:06:03.095Z,52.20
2024-03-26T07:07:03.116Z,52.21
2024-03-26T07:08:03.124Z,52.36
2024-03-26T07:09:03.160Z,52.49
2024-03-26T07:10:03.137Z,52.63
2024-03-26T07:11:03.142Z,52.71
2024-03-26T07:12:03.186Z,53.00
2024-03-26T07:13:03.184Z,50.85
2024-03-26T07:14:03.188Z,52.07
2024-03-26T07:15:03.210Z,52.11
2024-03-26T07:16:03.217Z,51.48
2024-03-26T07:17:03.235Z,51.52
2024-03-26T07:18:03.248Z,51.49
2024-03-26T07:19:03.258Z,50.63
2024-03-26T07:20:03.292Z,51.12
2024-03-26T07:21:03.286Z,49.89
2024-03-26T07:22:03.324Z,49.73
2024-03-26T07:23:03.314Z,48.33
2024-03-26T07:24:03.345Z,48.07
2024-03-26T07:25:03.342Z,48.33
2024-03-26T07:26:03.355Z,52.29
2024-03-26T07:27:03.374Z,51.32
2024-03-26T07:28:03.380Z,51.25
2024-03-26T07:29:03.388Z,52.33
2024-03-26T07:30:03.425Z,50.07
2024-03-26T07:31:03.426Z,50.09
2024-03-26T07:32:03.437Z,49.24
2024-03-26T07:33:03.453Z,50.14
2024-03-26T07:34:03.458Z,48.86
2024-03-26T07:35:03.468Z,49.55
2024-03-26T07:36:03.479Z,52.07
2024-03-26T07:37:03.512Z,50.74
2024-03-26T07:38:03.533Z,50.00
2024-03-26T07:39:03.556Z,50.40
2024-03-26T07:40:03.582Z,50.00
2024-03-26T07:41:03.570Z,50.74
2024-03-26T07:42:03.660Z,52.25
2024-03-26T07:43:06.469Z,50.00
2024-03-26T07:44:04.677Z,50.02
2024-03-26T07:45:03.784Z,50.14
2024-03-26T07:46:03.728Z,50.52
2024-03-26T07:47:03.687Z,50.07
2024-03-26T07:48:03.668Z,50.43
2024-03-26T07:49:03.689Z,52.21
2024-03-26T07:50:03.736Z,51.99
2024-03-26T07:51:03.720Z,52.00
2024-03-26T07:52:03.762Z,51.96
2024-03-26T07:53:03.788Z,52.02
2024-03-26T07:54:03.866Z,49.69
2024-03-26T07:55:03.771Z,48.38
2024-03-26T07:56:03.833Z,51.95
2024-03-26T07:57:03.936Z,51.75
2024-03-26T07:58:03.958Z,52.19
2024-03-26T07:59:03.826Z,50.78
2024-03-26T08:00:03.848Z,51.99
2024-03-26T08:01:03.974Z,50.32
2024-03-26T08:02:03.874Z,50.00
2024-03-26T08:03:03.959Z,53.03
2024-03-26T08:04:03.931Z,52.25
2024-03-26T08:05:03.885Z,50.70
2024-03-26T08:06:03.973Z,51.55
2024-03-26T08:07:03.979Z,52.89
2024-03-26T08:08:04.022Z,54.31
2024-03-26T08:09:04.113Z,52.63
2024-03-26T08:10:04.180Z,52.80
2024-03-26T08:11:04.186Z,53.44
2024-03-26T08:12:04.292Z,52.78
2024-03-26T08:13:04.351Z,53.54
2024-03-26T08:14:04.316Z,53.62
2024-03-26T08:15:04.470Z,52.58
2024-03-26T08:16:04.467Z,55.68
2024-03-26T08:17:04.571Z,55.18
2024-03-26T08:18:04.623Z,55.34
2024-03-26T08:19:04.583Z,52.40
2024-03-26T08:20:04.626Z,54.59
2024-03-26T08:21:04.739Z,55.53
2024-03-26T08:22:04.750Z,55.48
2024-03-26T08:23:04.762Z,53.85
2024-03-26T08:24:04.829Z,55.83
2024-03-26T08:25:04.866Z,52.84
2024-03-26T08:26:04.921Z,55.65
2024-03-26T08:27:04.971Z,55.54
2024-03-26T08:28:04.986Z,56.39
2024-03-26T08:29:05.087Z,56.55
2024-03-26T08:30:07.901Z,57.01
2024-03-26T08:31:05.086Z,57.06
2024-03-26T08:32:05.114Z,57.50
2024-03-26T08:33:05.166Z,57.98
2024-03-26T08:34:05.165Z,58.68
2024-03-26T08:35:05.159Z,62.63
2024-03-26T08:36:05.288Z,63.62
2024-03-26T08:37:05.230Z,62.83
2024-03-26T08:38:05.207Z,63.39
2024-03-26T08:39:05.248Z,66.34
2024-03-26T08:40:05.234Z,65.95
2024-03-26T08:41:05.239Z,66.61
2024-03-26T08:42:05.263Z,67.85
2024-03-26T08:43:05.268Z,68.93
2024-03-26T08:44:05.276Z,62.88
2024-03-26T08:45:06.972Z,63.14
2024-03-26T08:46:05.291Z,64.21
2024-03-26T08:47:05.326Z,65.44
2024-03-26T08:48:05.327Z,66.56
2024-03-26T08:49:05.341Z,67.26
2024-03-26T08:50:05.353Z,67.46
2024-03-26T08:51:05.357Z,71.80
2024-03-26T08:52:05.373Z,69.13
2024-03-26T08:53:05.389Z,69.05
2024-03-26T08:54:05.393Z,71.29
2024-03-26T08:55:05.425Z,65.48
2024-03-26T08:56:15.136Z,72.46
2024-03-26T08:57:06.453Z,69.89
2024-03-26T08:58:05.463Z,71.15
2024-03-26T08:59:05.470Z,73.51
2024-03-26T09:00:05.481Z,73.38
2024-03-26T09:01:05.507Z,77.28
2024-03-26T09:02:05.545Z,72.45
2024-03-26T09:03:05.597Z,68.43
2024-03-26T09:04:05.550Z,72.99
2024-03-26T09:05:05.564Z,77.81
2024-03-26T09:06:05.588Z,81.42
2024-03-26T09:07:05.596Z,80.42
2024-03-26T09:08:05.585Z,86.38
2024-03-26T09:09:05.610Z,81.76
2024-03-26T09:10:05.624Z,83.54
2024-03-26T09:11:05.628Z,93.48
2024-03-26T09:12:05.628Z,89.99
2024-03-26T09:13:05.643Z,84.83
2024-03-26T09:14:05.642Z,97.28
2024-03-26T09:15:05.658Z,97.76
2024-03-26T09:16:05.664Z,93.71
2024-03-26T09:17:05.692Z,96.39
2024-03-26T09:18:05.835Z,94.07
2024-03-26T09:19:05.733Z,93.45
2024-03-26T09:20:05.724Z,97.24
2024-03-26T09:21:05.703Z,97.58
2024-03-26T09:22:05.700Z,100.62
2024-03-26T09:23:05.702Z,104.50
2024-03-26T09:24:06.461Z,100.21
2024-03-26T09:25:05.719Z,99.91
2024-03-26T09:26:05.735Z,101.32
2024-03-26T09:27:05.728Z,105.19
2024-03-26T09:28:05.727Z,97.13
2024-03-26T09:29:05.739Z,96.26
2024-03-26T09:30:05.763Z,94.28
2024-03-26T09:31:07.576Z,92.56
2024-03-26T09:32:05.748Z,87.13
2024-03-26T09:33:05.747Z,57.34
2024-03-26T09:34:05.766Z,46.79
2024-03-26T09:35:05.797Z,39.91
2024-03-26T09:36:05.791Z,24.57
2024-03-26T09:37:05.815Z,9.26
2024-03-26T09:38:05.846Z,0.00
2024-03-26T09:39:08.362Z,0.00
2024-03-26T09:40:06.160Z,0.00
2024-03-26T09:41:06.046Z,0.00
2024-03-26T09:42:05.923Z,0.00
2024-03-26T09:43:05.959Z,0.00
2024-03-26T09:44:05.948Z,0.00
2024-03-26T09:45:06.986Z,0.00
2024-03-26T09:46:05.973Z,0.00
2024-03-26T09:47:05.988Z,12.11
2024-03-26T09:48:05.990Z,38.99
2024-03-26T09:49:05.999Z,52.43
2024-03-26T09:50:06.024Z,52.99
2024-03-26T09:51:06.026Z,54.78
2024-03-26T09:52:06.044Z,67.06
2024-03-26T09:53:06.030Z,63.71
2024-03-26T09:54:06.035Z,71.32
2024-03-26T09:55:06.062Z,77.78
2024-03-26T09:56:06.047Z,82.64
2024-03-26T09:57:06.056Z,88.93
2024-03-26T09:58:06.050Z,92.12
2024-03-26T09:59:06.033Z,96.59
2024-03-26T10:00:06.028Z,103.49
2024-03-26T10:01:06.047Z,107.38
2024-03-26T10:02:06.049Z,111.77
2024-03-26T10:03:06.051Z,116.98
2024-03-26T10:04:06.056Z,120.36
2024-03-26T10:05:06.057Z,120.73
2024-03-26T10:06:06.060Z,128.74
2024-03-26T10:07:06.065Z,135.40
2024-03-26T10:08:06.085Z,138.73
2024-03-26T10:09:06.092Z,144.58
2024-03-26T10:10:06.064Z,150.91
2024-03-26T10:11:06.087Z,150.66
2024-03-26T10:12:06.090Z,150.31
2024-03-26T10:13:06.052Z,157.05
2024-03-26T10:14:06.057Z,156.56
2024-03-26T10:15:06.071Z,161.84
2024-03-26T10:16:06.083Z,165.28
2024-03-26T10:17:06.094Z,165.53
2024-03-26T10:18:06.075Z,166.34
2024-03-26T10:19:06.088Z,159.03
2024-03-26T10:20:06.109Z,146.57
2024-03-26T10:21:06.124Z,131.93
2024-03-26T10:22:06.148Z,108.45
2024-03-26T10:23:06.146Z,82.67
2024-03-26T10:24:06.189Z,61.26
2024-03-26T10:25:06.177Z,49.34
2024-03-26T10:26:06.184Z,46.35
2024-03-26T10:27:06.209Z,49.11
2024-03-26T10:28:06.205Z,50.00
2024-03-26T10:29:06.259Z,49.77
2024-03-26T10:30:06.348Z,48.31
2024-03-26T10:31:06.371Z,49.84
2024-03-26T10:32:06.436Z,50.35
2024-03-26T10:33:06.503Z,50.96
2024-03-26T10:34:06.535Z,50.47
2024-03-26T10:35:06.584Z,53.97
2024-03-26T10:36:06.639Z,66.93
2024-03-26T10:37:06.684Z,71.77
2024-03-26T10:38:13.125Z,82.15
2024-03-26T10:39:07.763Z,82.67
2024-03-26T10:40:06.732Z,85.67
2024-03-26T10:41:06.744Z,89.96
2024-03-26T10:42:06.750Z,99.89
2024-03-26T10:43:06.744Z,116.84
2024-03-26T10:44:06.753Z,83.71
2024-03-26T10:45:06.767Z,90.25
2024-03-26T10:46:08.332Z,103.67
2024-03-26T10:47:06.778Z,127.48
2024-03-26T10:48:06.790Z,161.98
2024-03-26T10:49:06.800Z,169.40
2024-03-26T10:50:06.785Z,181.07
2024-03-26T10:51:06.802Z,189.71
2024-03-26T10:52:06.799Z,199.83
2024-03-26T10:53:06.789Z,201.11
2024-03-26T10:54:06.794Z,200.00
2024-03-26T10:55:06.805Z,198.21
2024-03-26T10:56:06.826Z,198.45
2024-03-26T10:57:06.837Z,200.08
2024-03-26T10:58:06.812Z,200.30
2024-03-26T10:59:06.879Z,200.00
2024-03-26T11:00:08.421Z,200.05
2024-03-26T11:01:06.987Z,199.67
2024-03-26T11:02:07.024Z,199.66
2024-03-26T11:03:07.040Z,199.44
2024-03-26T11:04:07.056Z,200.00
2024-03-26T11:05:07.066Z,200.00
2024-03-26T11:06:07.111Z,199.94
2024-03-26T11:07:07.131Z,199.69
2024-03-26T11:08:10.076Z,198.78
2024-03-26T11:09:07.169Z,200.00
2024-03-26T11:10:07.175Z,199.73
2024-03-26T11:11:07.172Z,199.47
2024-03-26T11:12:07.188Z,200.07
2024-03-26T11:13:07.156Z,199.98
2024-03-26T11:14:07.166Z,199.27
2024-03-26T11:15:07.170Z,198.72
2024-03-26T11:16:10.487Z,198.81
2024-03-26T11:17:07.299Z,198.93
2024-03-26T11:18:07.181Z,199.74
2024-03-26T11:19:07.151Z,201.15
2024-03-26T11:20:07.164Z,199.07
2024-03-26T11:21:07.172Z,200.20
2024-03-26T11:22:07.175Z,203.31
2024-03-26T11:23:07.163Z,207.74
2024-03-26T11:24:07.167Z,215.44
2024-03-26T11:25:07.143Z,205.43
2024-03-26T11:26:07.153Z,200.00
2024-03-26T11:27:09.361Z,199.69
2024-03-26T11:28:07.224Z,198.87
2024-03-26T11:29:07.265Z,198.17
2024-03-26T11:30:07.353Z,199.36
2024-03-26T11:31:07.376Z,199.05
2024-03-26T11:32:07.436Z,199.78
2024-03-26T11:33:07.502Z,200.00
2024-03-26T11:34:07.484Z,198.83
2024-03-26T11:35:07.532Z,199.49
2024-03-26T11:36:07.589Z,199.77
2024-03-26T11:37:07.643Z,199.09
2024-03-26T11:38:07.643Z,199.98
2024-03-26T11:39:07.704Z,199.78
2024-03-26T11:40:07.755Z,198.72
2024-03-26T11:41:08.077Z,197.88
2024-03-26T11:42:07.722Z,198.54
2024-03-26T11:43:07.763Z,199.75
2024-03-26T11:44:07.819Z,198.41
2024-03-26T11:45:07.858Z,199.30
2024-03-26T11:46:07.875Z,199.74
2024-03-26T11:47:07.911Z,199.46
2024-03-26T11:48:07.987Z,199.77
2024-03-26T11:49:08.063Z,199.05
2024-03-26T11:50:08.107Z,199.00
2024-03-26T11:51:08.164Z,197.93
2024-03-26T11:52:08.218Z,198.34
2024-03-26T11:53:08.246Z,198.38
2024-03-26T11:54:08.343Z,198.29
2024-03-26T11:55:08.340Z,198.12
2024-03-26T11:56:08.366Z,197.77
2024-03-26T11:57:08.433Z,197.57
2024-03-26T11:58:08.516Z,195.83
2024-03-26T11:59:08.510Z,197.62
2024-03-26T12:00:08.598Z,197.29
2024-03-26T12:01:08.598Z,197.05
2024-03-26T12:02:08.671Z,196.07
2024-03-26T12:03:10.032Z,194.86
2024-03-26T12:04:08.740Z,196.08
2024-03-26T12:05:08.807Z,194.73
2024-03-26T12:06:08.858Z,194.00
2024-03-26T12:07:08.882Z,193.85
2024-03-26T12:08:08.956Z,194.05
2024-03-26T12:09:09.008Z,194.48
2024-03-26T12:10:09.051Z,193.89
2024-03-26T12:11:09.100Z,193.76
2024-03-26T12:12:09.151Z,192.97
2024-03-26T12:13:09.174Z,193.07
2024-03-26T12:14:09.209Z,192.15
2024-03-26T12:15:09.287Z,192.13
2024-03-26T12:16:09.322Z,189.06
2024-03-26T12:17:09.340Z,191.16
2024-03-26T12:18:09.387Z,191.79
2024-03-26T12:19:09.412Z,191.09
2024-03-26T12:20:09.468Z,190.77
2024-03-26T12:21:09.518Z,191.57
2024-03-26T12:22:09.553Z,192.26
2024-03-26T12:23:09.591Z,192.64
2024-03-26T12:24:09.646Z,192.80
2024-03-26T12:25:09.670Z,192.69
2024-03-26T12:26:09.724Z,192.77
2024-03-26T12:27:09.767Z,192.34
2024-03-26T12:28:09.799Z,191.48
2024-03-26T12:29:09.809Z,190.61
2024-03-26T12:30:09.839Z,192.08
2024-03-26T12:31:09.842Z,192.83
2024-03-26T12:32:09.846Z,190.98
2024-03-26T12:33:09.882Z,193.12
2024-03-26T12:34:09.888Z,191.18
2024-03-26T12:35:09.897Z,192.46
2024-03-26T12:36:09.954Z,193.45
2024-03-26T12:37:09.925Z,193.80
2024-03-26T12:38:09.954Z,194.07
2024-03-26T12:39:09.975Z,193.47
2024-03-26T12:40:09.997Z,192.77
2024-03-26T12:41:09.970Z,193.00
2024-03-26T12:42:10.014Z,193.23
2024-03-26T12:43:10.054Z,191.54
2024-03-26T12:44:10.086Z,192.09
2024-03-26T12:45:10.087Z,190.70
2024-03-26T12:47:10.131Z,191.39
2024-03-26T12:48:10.187Z,191.07
2024-03-26T12:49:10.168Z,189.45
2024-03-26T12:50:10.186Z,190.33
2024-03-26T12:51:10.225Z,189.45